Time,TemperatureF,DewpointF,PressureIn,WindDirection,WindDirectionDegrees,WindSpeedMPH,WindSpeedGustMPH,Humidity,HourlyPrecipIn,Conditions,Clouds,dailyrainin,SolarRadiationWatts/m^2,SoftwareType,DateUTC
2013-07-29 00:05:00,77.0,75.0,29.96,East,79,0.0,9.0,93,0.00,,,0.00,0,weatherlink.com 1.10,2013-07-29 10:05:00,
2013-07-29 00:35:00,77.1,75.0,29.96,East,86,8.0,10.0,92,0.00,,,0.00,0,weatherlink.com 1.10,2013-07-29 10:35:00,
2013-07-29 00:50:00,77.2,75.0,29.95,ENE,78,3.0,11.0,92,0.00,,,0.00,0,weatherlink.com 1.10,2013-07-29 10:50:00,
2013-07-29 01:05:00,77.2,75.0,29.95,East,90,1.0,10.0,91,0.00,,,0.00,0,weatherlink.com 1.10,2013-07-29 11:05:00,
2013-07-29 01:22:00,77.2,75.0,29.94,NE,53,5.0,7.0,92,0.00,,,0.00,0,weatherlink.com 1.10,2013-07-29 11:22:00,
2013-07-29 01:37:00,76.4,74.0,29.94,ESE,119,6.0,10.0,93,0.00,,,0.00,0,weatherlink.com 1.10,2013-07-29 11:37:00,
2013-07-29 01:51:00,76.4,75.0,29.94,ENE,78,5.0,8.0,94,0.00,,,0.00,0,weatherlink.com 1.10,2013-07-29 11:51:00,
2013-07-29 02:07:00,76.4,75.0,29.93,East,80,1.0,8.0,94,0.00,,,0.00,0,weatherlink.com 1.10,2013-07-29 12:07:00,
2013-07-29 02:22:00,76.7,75.0,29.93,NE,38,0.0,9.0,94,0.01,,,0.01,0,weatherlink.com 1.10,2013-07-29 12:22:00,
2013-07-29 02:37:00,76.3,75.0,29.92,NE,55,3.0,10.0,94,0.01,,,0.01,0,weatherlink.com 1.10,2013-07-29 12:37:00,
2013-07-29 02:52:00,76.0,74.0,29.92,East,82,0.0,6.0,94,0.01,,,0.01,0,weatherlink.com 1.10,2013-07-29 12:52:00,
2013-07-29 03:07:00,76.3,75.0,29.92,East,99,3.0,8.0,94,0.01,,,0.01,0,weatherlink.com 1.10,2013-07-29 13:07:00,
2013-07-29 03:22:00,76.3,75.0,29.91,NE,41,1.0,7.0,94,0.00,,,0.01,0,weatherlink.com 1.10,2013-07-29 13:22:00,
2013-07-29 03:37:00,76.4,75.0,29.91,North,7,3.0,7.0,94,0.00,,,0.01,0,weatherlink.com 1.10,2013-07-29 13:37:00,
2013-07-29 03:52:00,76.6,75.0,29.91,NNE,20,0.0,4.0,94,0.00,,,0.01,0,weatherlink.com 1.10,2013-07-29 13:52:00,
2013-07-29 04:08:00,76.5,74.0,29.90,North,1,4.0,6.0,93,0.00,,,0.01,0,weatherlink.com 1.10,2013-07-29 14:08:00,
2013-07-29 04:22:00,76.8,75.0,29.91,NE,53,2.0,10.0,93,0.01,,,0.02,0,weatherlink.com 1.10,2013-07-29 14:22:00,
2013-07-29 04:37:00,76.0,74.0,29.90,NE,44,2.0,6.0,94,0.03,,,0.04,0,weatherlink.com 1.10,2013-07-29 14:37:00,
2013-07-29 05:08:00,76.1,75.0,29.91,ENE,63,3.0,9.0,95,0.03,,,0.04,0,weatherlink.com 1.10,2013-07-29 15:08:00,
2013-07-29 05:22:00,76.4,75.0,29.91,NE,53,4.0,10.0,96,0.02,,,0.04,0,weatherlink.com 1.10,2013-07-29 15:22:00,
2013-07-29 05:37:00,76.3,75.0,29.90,NE,38,3.0,6.0,95,0.01,,,0.05,0,weatherlink.com 1.10,2013-07-29 15:37:00,
2013-07-29 05:52:00,76.1,75.0,29.91,ENE,77,1.0,14.0,95,0.06,,,0.10,0,weatherlink.com 1.10,2013-07-29 15:52:00,
2013-07-29 06:07:00,76.3,75.0,29.92,NNW,345,4.0,7.0,96,0.06,,,0.10,0,weatherlink.com 1.10,2013-07-29 16:07:00,
2013-07-29 06:22:00,76.2,75.0,29.92,North,7,3.0,9.0,96,0.06,,,0.10,30,weatherlink.com 1.10,2013-07-29 16:22:00,
2013-07-29 06:37:00,76.6,76.0,29.92,NNE,24,2.0,9.0,97,0.05,,,0.10,97,weatherlink.com 1.10,2013-07-29 16:37:00,
2013-07-29 06:52:00,76.6,76.0,29.93,NNW,344,4.0,12.0,97,0.00,,,0.10,46,weatherlink.com 1.10,2013-07-29 16:52:00,
2013-07-29 07:07:00,76.9,76.0,29.93,NNW,332,6.0,9.0,96,0.00,,,0.10,183,weatherlink.com 1.10,2013-07-29 17:07:00,
2013-07-29 07:23:00,77.6,76.0,29.93,NNE,20,4.0,9.0,96,0.00,,,0.10,234,weatherlink.com 1.10,2013-07-29 17:23:00,
2013-07-29 08:08:00,77.7,76.0,29.93,NNE,19,8.0,12.0,94,0.00,,,0.10,65,weatherlink.com 1.10,2013-07-29 18:08:00,
2013-07-29 08:23:00,77.6,76.0,29.93,ESE,106,8.0,13.0,94,0.00,,,0.10,69,weatherlink.com 1.10,2013-07-29 18:23:00,
2013-07-29 08:53:00,77.7,77.0,29.94,North,3,5.0,7.0,97,0.03,,,0.13,195,weatherlink.com 1.10,2013-07-29 18:53:00,
2013-07-29 09:08:00,79.0,78.0,29.94,NW,305,5.0,10.0,95,0.03,,,0.13,209,weatherlink.com 1.10,2013-07-29 19:08:00,
2013-07-29 09:23:00,79.6,78.0,29.94,North,349,7.0,12.0,94,0.03,,,0.13,605,weatherlink.com 1.10,2013-07-29 19:23:00,
2013-07-29 09:54:00,80.9,78.0,29.93,North,354,8.0,11.0,90,0.00,,,0.13,427,weatherlink.com 1.10,2013-07-29 19:54:00,
2013-07-29 10:24:00,80.4,77.0,29.93,NNE,32,6.0,10.0,90,0.00,,,0.13,387,weatherlink.com 1.10,2013-07-29 20:24:00,
2013-07-29 10:39:00,82.3,79.0,29.93,NE,40,4.0,10.0,89,0.00,,,0.13,946,weatherlink.com 1.10,2013-07-29 20:39:00,
2013-07-29 10:54:00,82.7,78.0,29.93,NNE,20,3.0,10.0,84,0.00,,,0.13,951,weatherlink.com 1.10,2013-07-29 20:54:00,
2013-07-29 11:09:00,82.6,78.0,29.92,NNE,22,8.0,10.0,85,0.00,,,0.13,492,weatherlink.com 1.10,2013-07-29 21:09:00,
2013-07-29 11:24:00,83.6,79.0,29.92,NNE,23,2.0,11.0,86,0.00,,,0.13,752,weatherlink.com 1.10,2013-07-29 21:24:00,
2013-07-29 11:39:00,82.4,78.0,29.91,NNE,21,6.0,12.0,86,0.00,,,0.13,649,weatherlink.com 1.10,2013-07-29 21:39:00,
2013-07-29 11:54:00,83.1,78.0,29.91,North,351,10.0,16.0,84,0.00,,,0.13,1078,weatherlink.com 1.10,2013-07-29 21:54:00,
2013-07-29 12:09:00,82.8,78.0,29.91,North,353,9.0,12.0,84,0.00,,,0.13,673,weatherlink.com 1.10,2013-07-29 22:09:00,
2013-07-29 12:24:00,82.9,78.0,29.90,North,352,3.0,10.0,85,0.00,,,0.13,575,weatherlink.com 1.10,2013-07-29 22:24:00,
2013-07-29 13:09:00,82.2,78.0,29.88,NNE,24,8.0,15.0,86,0.00,,,0.13,726,weatherlink.com 1.10,2013-07-29 23:09:00,
2013-07-29 13:25:00,82.5,77.0,29.87,NNW,340,6.0,14.0,84,0.00,,,0.13,603,weatherlink.com 1.10,2013-07-29 23:25:00,
2013-07-29 13:40:00,82.4,78.0,29.87,NNW,347,7.0,12.0,85,0.00,,,0.13,413,weatherlink.com 1.10,2013-07-29 23:40:00,
2013-07-29 14:25:00,82.6,77.0,29.86,ENE,77,6.0,13.0,84,0.00,,,0.13,679,weatherlink.com 1.10,2013-07-30 00:25:00,
2013-07-29 14:42:00,81.5,77.0,29.86,NE,36,8.0,13.0,86,0.00,,,0.13,258,weatherlink.com 1.10,2013-07-30 00:42:00,
2013-07-29 15:10:00,80.4,76.0,29.85,NE,40,5.0,16.0,85,0.00,,,0.13,294,weatherlink.com 1.10,2013-07-30 01:10:00,
2013-07-29 15:25:00,80.9,77.0,29.85,North,8,6.0,10.0,87,0.00,,,0.13,229,weatherlink.com 1.10,2013-07-30 01:25:00,
2013-07-29 15:40:00,80.8,76.0,29.84,North,7,7.0,13.0,86,0.00,,,0.13,176,weatherlink.com 1.10,2013-07-30 01:40:00,
2013-07-29 15:55:00,80.3,77.0,29.83,North,352,6.0,12.0,88,0.00,,,0.13,114,weatherlink.com 1.10,2013-07-30 01:55:00,
2013-07-29 16:27:00,78.6,76.0,29.82,North,355,8.0,13.0,92,0.00,,,0.13,192,weatherlink.com 1.10,2013-07-30 02:27:00,
2013-07-29 16:41:00,78.8,77.0,29.82,NNE,30,4.0,9.0,93,0.00,,,0.13,190,weatherlink.com 1.10,2013-07-30 02:41:00,
2013-07-29 16:58:00,79.3,76.0,29.81,NNW,334,5.0,13.0,90,0.00,,,0.13,127,weatherlink.com 1.10,2013-07-30 02:58:00,
2013-07-29 17:12:00,79.7,76.0,29.82,NNE,26,7.0,15.0,89,0.00,,,0.13,139,weatherlink.com 1.10,2013-07-30 03:12:00,
2013-07-29 17:42:00,79.3,76.0,29.82,North,1,6.0,14.0,89,0.00,,,0.13,30,weatherlink.com 1.10,2013-07-30 03:42:00,
2013-07-29 17:57:00,78.9,76.0,29.81,North,2,3.0,13.0,90,0.00,,,0.13,21,weatherlink.com 1.10,2013-07-30 03:57:00,
2013-07-29 18:12:00,78.7,76.0,29.82,NE,43,5.0,15.0,90,0.00,,,0.13,11,weatherlink.com 1.10,2013-07-30 04:12:00,
2013-07-29 18:27:00,78.5,75.0,29.82,NNE,24,9.0,12.0,90,0.00,,,0.13,7,weatherlink.com 1.10,2013-07-30 04:27:00,
2013-07-29 18:43:00,78.4,75.0,29.82,North,5,4.0,11.0,90,0.00,,,0.13,0,weatherlink.com 1.10,2013-07-30 04:43:00,
2013-07-29 18:57:00,78.4,75.0,29.82,NNE,13,5.0,12.0,90,0.00,,,0.13,0,weatherlink.com 1.10,2013-07-30 04:57:00,
2013-07-29 19:12:00,78.1,75.0,29.83,North,11,4.0,12.0,89,0.00,,,0.13,0,weatherlink.com 1.10,2013-07-30 05:12:00,
2013-07-29 19:27:00,78.2,75.0,29.82,NNW,339,7.0,13.0,89,0.00,,,0.13,0,weatherlink.com 1.10,2013-07-30 05:27:00,
2013-07-29 19:42:00,77.5,75.0,29.84,NNW,336,7.0,16.0,91,0.00,,,0.13,0,weatherlink.com 1.10,2013-07-30 05:42:00,
2013-07-29 19:58:00,77.0,74.0,29.84,WNW,290,6.0,9.0,91,0.00,,,0.13,0,weatherlink.com 1.10,2013-07-30 05:58:00,
2013-07-29 20:12:00,76.5,74.0,29.84,NNW,336,3.0,7.0,92,0.00,,,0.13,0,weatherlink.com 1.10,2013-07-30 06:12:00,
2013-07-29 20:27:00,76.3,74.0,29.84,North,1,2.0,9.0,92,0.00,,,0.13,0,weatherlink.com 1.10,2013-07-30 06:27:00,
2013-07-29 20:42:00,76.0,74.0,29.83,North,11,3.0,8.0,93,0.00,,,0.13,0,weatherlink.com 1.10,2013-07-30 06:42:00,
2013-07-29 20:57:00,75.8,74.0,29.82,NNE,17,0.0,7.0,94,0.00,,,0.13,0,weatherlink.com 1.10,2013-07-30 06:57:00,
2013-07-29 21:12:00,75.8,74.0,29.84,South,176,0.0,9.0,94,0.00,,,0.13,0,weatherlink.com 1.10,2013-07-30 07:12:00,
2013-07-29 21:27:00,76.3,75.0,29.86,East,88,4.0,11.0,94,0.00,,,0.13,0,weatherlink.com 1.10,2013-07-30 07:27:00,
2013-07-29 21:42:00,76.9,75.0,29.87,West,274,3.0,13.0,94,0.00,,,0.13,0,weatherlink.com 1.10,2013-07-30 07:42:00,
2013-07-29 21:58:00,77.0,75.0,29.88,SE,124,4.0,8.0,94,0.00,,,0.13,0,weatherlink.com 1.10,2013-07-30 07:58:00,
2013-07-29 22:13:00,77.0,75.0,29.88,SW,226,3.0,13.0,93,0.00,,,0.13,0,weatherlink.com 1.10,2013-07-30 08:13:00,
2013-07-29 22:28:00,77.1,75.0,29.89,ESE,110,2.0,7.0,93,0.00,,,0.13,0,weatherlink.com 1.10,2013-07-30 08:28:00,
2013-07-29 22:43:00,77.4,75.0,29.89,NNW,335,0.0,11.0,93,0.00,,,0.13,0,weatherlink.com 1.10,2013-07-30 08:43:00,
2013-07-29 22:58:00,77.6,75.0,29.89,SE,124,5.0,9.0,92,0.00,,,0.13,0,weatherlink.com 1.10,2013-07-30 08:58:00,
2013-07-29 23:13:00,77.5,75.0,29.90,NE,48,5.0,20.0,93,0.10,,,0.23,0,weatherlink.com 1.10,2013-07-30 09:13:00,
2013-07-29 23:28:00,76.0,74.0,29.91,SSE,162,7.0,10.0,92,0.13,,,0.26,0,weatherlink.com 1.10,2013-07-30 09:28:00,
2013-07-29 23:43:00,75.5,73.0,29.92,SSW,213,9.0,13.0,93,0.13,,,0.26,0,weatherlink.com 1.10,2013-07-30 09:43:00,
2013-07-29 23:58:00,75.3,73.0,29.91,ENE,68,6.0,15.0,93,0.13,,,0.26,0,weatherlink.com 1.10,2013-07-30 09:58:00,